createdAt,value
2022-10-31T00:01:20.081Z,78.62
2022-10-31T00:03:48.526Z,78.52
2022-10-31T00:06:19.006Z,78.56
2022-10-31T00:08:46.871Z,78.59
2022-10-31T00:11:14.704Z,78.35
2022-10-31T00:13:43.801Z,78.46
2022-10-31T00:16:18.068Z,78.58
2022-10-31T00:18:46.107Z,78.49
2022-10-31T00:21:13.756Z,78.53
2022-10-31T00:23:41.441Z,78.46
2022-10-31T00:26:09.299Z,78.61
2022-10-31T00:28:37.000Z,78.36
2022-10-31T00:31:07.899Z,78.18
2022-10-31T00:33:37.577Z,78.31
2022-10-31T00:36:06.165Z,78.38
2022-10-31T00:38:33.864Z,78.47
2022-10-31T00:41:01.561Z,77.89
2022-10-31T00:43:29.206Z,77.58
2022-10-31T00:45:56.880Z,77.54
2022-10-31T00:48:25.967Z,77.50
2022-10-31T00:50:53.591Z,77.81
2022-10-31T00:53:21.336Z,77.87
2022-10-31T00:55:49.049Z,77.73
2022-10-31T00:58:17.034Z,77.44
2022-10-31T01:00:48.068Z,77.58
2022-10-31T01:03:18.621Z,77.41
2022-10-31T01:05:47.679Z,77.00
2022-10-31T01:08:15.320Z,76.67
2022-10-31T01:10:42.929Z,76.89
2022-10-31T01:13:10.608Z,76.99
2022-10-31T01:15:38.283Z,76.92
2022-10-31T01:18:06.082Z,76.80
2022-10-31T01:20:33.760Z,76.86
2022-10-31T01:23:02.835Z,76.79
2022-10-31T01:25:30.503Z,77.11
2022-10-31T01:27:58.433Z,76.98
2022-10-31T01:30:26.442Z,76.60
2022-10-31T01:32:54.109Z,76.85
2022-10-31T01:35:21.741Z,76.30
2022-10-31T01:37:49.390Z,76.09
2022-10-31T01:40:18.573Z,76.29
2022-10-31T01:42:46.221Z,76.26
2022-10-31T01:45:16.000Z,76.35
2022-10-31T01:47:45.810Z,76.41
2022-10-31T01:50:17.946Z,76.21
2022-10-31T01:52:46.976Z,75.97
2022-10-31T01:55:20.185Z,76.10
2022-10-31T01:57:50.693Z,76.50
2022-10-31T02:00:18.967Z,76.59
2022-10-31T02:02:47.423Z,76.07
2022-10-31T02:05:18.850Z,75.96
2022-10-31T02:07:51.351Z,76.49
2022-10-31T02:10:21.427Z,75.96
2022-10-31T02:12:49.411Z,76.35
2022-10-31T02:15:17.209Z,76.12
2022-10-31T02:17:44.961Z,76.40
2022-10-31T02:20:17.375Z,76.48
2022-10-31T02:23:24.091Z,76.47
2022-10-31T02:26:20.570Z,76.28
2022-10-31T02:29:05.309Z,76.17
2022-10-31T02:31:37.389Z,76.11
2022-10-31T02:34:11.472Z,75.45
2022-10-31T02:36:44.602Z,75.59
2022-10-31T02:39:16.294Z,75.51
2022-10-31T02:41:49.338Z,75.52
2022-10-31T02:44:22.501Z,75.30
2022-10-31T02:46:54.474Z,75.74
2022-10-31T02:49:26.514Z,76.25
2022-10-31T02:51:54.494Z,75.97
2022-10-31T02:54:24.798Z,75.85
2022-10-31T02:56:54.842Z,75.82
2022-10-31T02:59:23.106Z,75.68
2022-10-31T03:02:23.111Z,76.46
2022-10-31T03:05:11.518Z,76.31
2022-10-31T03:07:44.714Z,76.17
2022-10-31T03:10:18.610Z,76.32
2022-10-31T03:12:52.217Z,76.04
2022-10-31T03:15:23.308Z,75.79
2022-10-31T03:17:59.635Z,75.65
2022-10-31T03:20:31.821Z,75.48
2022-10-31T03:23:00.352Z,75.53
2022-10-31T03:25:28.279Z,75.56
2022-10-31T03:27:56.584Z,75.57
2022-10-31T03:30:24.395Z,75.55
2022-10-31T03:32:55.695Z,75.47
2022-10-31T03:35:25.408Z,75.43
2022-10-31T03:37:54.447Z,75.28
2022-10-31T03:40:23.857Z,75.07
2022-10-31T03:42:55.106Z,74.90
2022-10-31T03:45:25.545Z,73.96
2022-10-31T03:47:55.185Z,74.51
2022-10-31T03:50:23.740Z,74.72
2022-10-31T03:52:57.187Z,74.58
2022-10-31T03:55:28.655Z,74.42
2022-10-31T03:58:01.593Z,74.18
2022-10-31T04:00:29.658Z,74.11
2022-10-31T04:03:02.620Z,74.37
2022-10-31T04:05:31.637Z,73.64
2022-10-31T04:08:00.869Z,74.02
2022-10-31T04:10:32.927Z,73.29
2022-10-31T04:13:05.235Z,73.20
2022-10-31T04:15:33.398Z,72.67
2022-10-31T04:18:03.565Z,72.93
2022-10-31T04:20:32.301Z,73.12
2022-10-31T04:22:59.964Z,73.05
2022-10-31T04:25:27.625Z,73.06
2022-10-31T04:27:55.494Z,73.00
2022-10-31T04:30:23.259Z,72.84
2022-10-31T04:32:50.903Z,72.93
2022-10-31T04:35:19.939Z,72.98
2022-10-31T04:37:47.643Z,72.90
2022-10-31T04:40:15.425Z,73.17
2022-10-31T04:42:43.035Z,73.34
2022-10-31T04:45:14.286Z,73.09
2022-10-31T04:47:44.523Z,73.14
2022-10-31T04:50:12.174Z,73.12
2022-10-31T04:52:42.554Z,72.58
2022-10-31T04:55:10.868Z,72.63
2022-10-31T04:57:42.701Z,72.12
2022-10-31T05:00:11.545Z,72.85
2022-10-31T05:02:45.402Z,73.08
2022-10-31T05:05:13.675Z,72.45
2022-10-31T05:07:44.056Z,72.58
2022-10-31T05:10:12.550Z,72.34
2022-10-31T05:12:40.572Z,72.55
2022-10-31T05:15:08.895Z,72.70
2022-10-31T05:17:36.563Z,73.24
2022-10-31T05:20:04.432Z,72.95
2022-10-31T05:22:32.032Z,73.04
2022-10-31T05:25:01.130Z,73.03
2022-10-31T05:27:28.748Z,72.53
2022-10-31T05:29:56.398Z,73.14
2022-10-31T05:32:24.174Z,72.95
2022-10-31T05:34:51.791Z,72.98
2022-10-31T05:37:19.429Z,73.10
2022-10-31T05:39:47.099Z,73.04
2022-10-31T05:42:16.137Z,72.78
2022-10-31T05:44:43.823Z,72.64
2022-10-31T05:47:11.562Z,72.88
2022-10-31T05:49:39.224Z,72.98
2022-10-31T05:52:06.903Z,74.58
2022-10-31T05:54:34.609Z,75.26
2022-10-31T05:57:02.285Z,75.83
2022-10-31T05:59:31.327Z,73.58
2022-10-31T06:01:59.016Z,73.33
2022-10-31T06:04:26.680Z,73.15
2022-10-31T06:06:54.382Z,73.29
2022-10-31T06:09:22.122Z,73.25
2022-10-31T06:11:49.768Z,72.95
2022-10-31T06:14:17.399Z,72.78
2022-10-31T06:16:46.479Z,72.67
2022-10-31T06:19:14.194Z,73.04
2022-10-31T06:21:41.810Z,73.27
2022-10-31T06:24:09.671Z,73.55
2022-10-31T06:26:37.317Z,73.29
2022-10-31T06:29:05.117Z,73.25
2022-10-31T06:31:32.795Z,73.35
2022-10-31T06:34:01.840Z,73.68
2022-10-31T06:36:29.534Z,73.77
2022-10-31T06:38:57.197Z,73.39
2022-10-31T06:41:24.874Z,73.87
2022-10-31T06:43:52.506Z,73.74
2022-10-31T06:46:20.286Z,74.06
2022-10-31T06:48:47.911Z,73.93
2022-10-31T06:51:16.956Z,74.06
2022-10-31T06:53:44.635Z,73.91
2022-10-31T06:56:12.271Z,74.08
2022-10-31T06:58:39.967Z,74.12
2022-10-31T07:01:08.027Z,74.10
2022-10-31T07:03:35.852Z,74.42
2022-10-31T07:06:03.513Z,74.52
2022-10-31T07:08:32.571Z,74.38
2022-10-31T07:11:00.287Z,74.68
2022-10-31T07:13:27.998Z,74.62
2022-10-31T07:16:00.917Z,74.97
2022-10-31T07:18:28.589Z,74.76
2022-10-31T07:20:56.599Z,74.87
2022-10-31T07:23:24.362Z,75.05
2022-10-31T07:25:58.080Z,75.11
2022-10-31T07:28:25.884Z,75.10
2022-10-31T07:30:54.858Z,75.31
2022-10-31T07:33:22.777Z,75.57
2022-10-31T07:35:50.530Z,75.67
2022-10-31T07:38:18.153Z,75.78
2022-10-31T07:40:45.846Z,75.83
2022-10-31T07:43:14.988Z,76.11
2022-10-31T07:45:42.869Z,76.08
2022-10-31T07:48:10.581Z,76.36
2022-10-31T07:50:38.334Z,76.55
2022-10-31T07:53:08.824Z,76.98
2022-10-31T07:55:37.079Z,77.12
2022-10-31T07:58:06.053Z,77.62
2022-10-31T08:00:36.372Z,77.77
2022-10-31T08:03:05.731Z,78.44
2022-10-31T08:05:33.893Z,78.42
2022-10-31T08:08:02.114Z,78.78
2022-10-31T08:10:30.249Z,78.69
2022-10-31T08:12:59.429Z,79.08
2022-10-31T08:15:27.647Z,79.12
2022-10-31T08:17:56.733Z,79.48
2022-10-31T08:20:24.501Z,79.77
2022-10-31T08:22:56.865Z,80.47
2022-10-31T08:25:24.798Z,81.36
2022-10-31T08:27:53.462Z,81.95
2022-10-31T08:30:21.614Z,81.97
2022-10-31T08:32:49.723Z,81.65
2022-10-31T08:35:18.903Z,82.73
2022-10-31T08:37:46.520Z,83.05
2022-10-31T08:40:14.260Z,82.80
2022-10-31T08:42:41.929Z,83.00
2022-10-31T08:45:10.256Z,82.73
2022-10-31T08:47:37.919Z,83.22
2022-10-31T08:50:06.131Z,83.34
2022-10-31T08:53:03.029Z,82.91
2022-10-31T08:55:23.058Z,83.47
2022-10-31T08:57:50.743Z,83.60
2022-10-31T09:00:18.678Z,83.50
2022-10-31T09:02:46.315Z,83.96
2022-10-31T09:05:14.067Z,83.94
2022-10-31T09:07:43.135Z,84.37
2022-10-31T09:10:10.989Z,84.50
2022-10-31T09:12:38.630Z,84.84
2022-10-31T09:15:07.455Z,84.30
2022-10-31T09:17:35.197Z,82.94
2022-10-31T09:20:02.846Z,82.86
2022-10-31T09:22:30.528Z,83.32
2022-10-31T09:24:59.578Z,83.54
2022-10-31T09:27:27.196Z,83.63
2022-10-31T09:29:54.878Z,82.29
2022-10-31T09:32:22.505Z,81.68
2022-10-31T09:34:50.106Z,81.95
2022-10-31T09:37:17.734Z,81.84
2022-10-31T09:39:45.398Z,81.97
2022-10-31T09:42:54.446Z,80.77
2022-10-31T09:45:28.661Z,81.41
2022-10-31T09:48:19.651Z,81.34
2022-10-31T09:50:49.993Z,81.46
2022-10-31T09:53:25.399Z,81.42
2022-10-31T09:55:53.457Z,81.08
2022-10-31T09:58:22.879Z,81.51
2022-10-31T10:00:51.995Z,81.32
2022-10-31T10:03:29.327Z,78.14
2022-10-31T10:06:03.576Z,77.63
2022-10-31T10:08:33.624Z,78.00
2022-10-31T10:11:10.909Z,78.76
2022-10-31T10:13:47.536Z,77.77
2022-10-31T10:16:24.630Z,76.91
2022-10-31T10:19:02.524Z,76.50
2022-10-31T10:21:39.641Z,74.75
2022-10-31T10:24:18.232Z,77.33
2022-10-31T10:26:52.073Z,75.82
2022-10-31T10:29:32.421Z,75.14
2022-10-31T10:32:04.047Z,74.87
2022-10-31T10:34:35.845Z,74.79
2022-10-31T10:37:06.512Z,74.67
2022-10-31T10:39:40.223Z,73.96
2022-10-31T10:42:29.495Z,74.20
2022-10-31T10:45:14.701Z,74.86
2022-10-31T10:47:44.975Z,73.59
2022-10-31T10:50:16.710Z,72.68
2022-10-31T10:52:51.047Z,72.46
2022-10-31T10:55:27.336Z,73.16
2022-10-31T10:57:59.022Z,72.18
2022-10-31T11:00:28.541Z,73.75
2022-10-31T11:02:57.856Z,72.98
2022-10-31T11:05:28.525Z,72.77
2022-10-31T11:07:56.224Z,72.06
2022-10-31T11:10:24.218Z,72.11
2022-10-31T11:13:05.387Z,72.13
2022-10-31T11:15:37.584Z,72.16
2022-10-31T11:18:07.241Z,72.06
2022-10-31T11:20:37.013Z,72.80
2022-10-31T11:23:16.365Z,72.59
2022-10-31T11:25:50.675Z,72.89
2022-10-31T11:28:18.390Z,72.95
2022-10-31T11:32:20.329Z,72.59
2022-10-31T11:34:51.519Z,72.75
2022-10-31T11:37:22.355Z,71.95
2022-10-31T11:39:54.425Z,73.26
2022-10-31T11:42:24.354Z,73.76
2022-10-31T11:46:17.327Z,73.30
2022-10-31T11:48:49.021Z,73.34
2022-10-31T11:51:22.836Z,73.64
2022-10-31T11:53:56.902Z,73.51
2022-10-31T11:56:28.282Z,74.02
2022-10-31T11:58:59.934Z,73.85
2022-10-31T12:01:30.294Z,73.56
2022-10-31T12:04:06.199Z,74.90
2022-10-31T12:06:36.049Z,73.32
2022-10-31T12:09:03.756Z,73.54
2022-10-31T12:11:44.569Z,73.81
2022-10-31T12:14:22.563Z,73.71
2022-10-31T12:16:55.878Z,74.00
2022-10-31T12:19:32.722Z,73.64
2022-10-31T12:22:18.050Z,73.02
2022-10-31T12:25:04.787Z,72.86
2022-10-31T12:27:40.128Z,72.95
2022-10-31T12:30:17.425Z,73.70
2022-10-31T12:33:06.043Z,73.35
2022-10-31T12:35:43.281Z,73.61
2022-10-31T12:38:38.579Z,74.34
2022-10-31T12:41:18.872Z,74.43
2022-10-31T12:43:49.456Z,73.46
2022-10-31T12:46:26.755Z,73.31
2022-10-31T12:49:08.070Z,73.46
2022-10-31T12:51:42.284Z,73.38
2022-10-31T12:54:54.425Z,73.11
2022-10-31T12:57:26.467Z,74.05
2022-10-31T12:59:56.984Z,73.73
2022-10-31T13:02:29.107Z,73.99
2022-10-31T13:04:59.856Z,73.26
2022-10-31T13:07:30.961Z,73.74
2022-10-31T13:10:02.355Z,74.42
2022-10-31T13:12:34.712Z,74.43
2022-10-31T13:15:07.334Z,74.89
2022-10-31T13:17:37.272Z,75.05
2022-10-31T13:20:19.898Z,75.63
2022-10-31T13:22:49.808Z,74.62
2022-10-31T13:25:19.498Z,74.92
2022-10-31T13:27:51.460Z,75.96
2022-10-31T13:30:21.120Z,75.21
2022-10-31T13:32:52.076Z,75.38
2022-10-31T13:35:27.544Z,75.92
2022-10-31T13:38:04.612Z,75.33
2022-10-31T13:40:37.818Z,75.43
2022-10-31T13:43:12.107Z,75.39
2022-10-31T13:45:50.088Z,75.51
2022-10-31T13:48:35.201Z,75.60
2022-10-31T13:51:07.208Z,75.61
2022-10-31T13:53:41.122Z,75.54
2022-10-31T13:56:21.120Z,75.43
2022-10-31T13:59:20.736Z,75.36
2022-10-31T14:01:50.852Z,75.51
2022-10-31T14:04:24.959Z,75.50
2022-10-31T14:07:00.163Z,75.86
2022-10-31T14:09:31.522Z,76.01
2022-10-31T14:12:01.740Z,76.08
2022-10-31T14:14:34.443Z,76.21
2022-10-31T14:17:02.604Z,76.28
2022-10-31T14:19:30.246Z,76.48
2022-10-31T14:21:59.285Z,76.54
2022-10-31T14:24:38.380Z,76.90
2022-10-31T14:27:37.154Z,77.38
2022-10-31T14:30:26.041Z,77.24
2022-10-31T14:32:55.724Z,77.26
2022-10-31T14:35:27.819Z,77.24
2022-10-31T14:38:06.872Z,77.47
2022-10-31T14:40:41.854Z,77.56
2022-10-31T14:43:33.225Z,77.87
2022-10-31T14:46:03.398Z,77.25
2022-10-31T14:48:55.750Z,77.51
2022-10-31T14:51:24.749Z,77.63
2022-10-31T14:53:55.499Z,77.74
2022-10-31T14:56:27.321Z,77.98
2022-10-31T14:58:56.338Z,78.11
2022-10-31T15:01:27.592Z,77.92
2022-10-31T15:04:21.967Z,78.04
2022-10-31T15:06:46.741Z,78.01
2022-10-31T15:09:27.228Z,78.28
2022-10-31T15:11:54.972Z,78.45
2022-10-31T15:14:25.989Z,78.51
2022-10-31T15:16:54.055Z,78.68
2022-10-31T15:19:25.531Z,78.82
2022-10-31T15:21:54.939Z,78.56
2022-10-31T15:24:22.805Z,78.90
2022-10-31T15:26:53.715Z,79.20
2022-10-31T15:29:23.607Z,79.06
2022-10-31T15:31:52.600Z,79.03
2022-10-31T15:34:23.738Z,79.07
2022-10-31T15:36:51.467Z,79.01
2022-10-31T15:39:19.612Z,79.02
2022-10-31T15:41:54.767Z,78.78
2022-10-31T15:44:25.619Z,79.04
2022-10-31T15:46:57.653Z,79.04
2022-10-31T15:49:35.401Z,78.81
2022-10-31T15:52:08.561Z,78.94
2022-10-31T15:54:37.100Z,79.23
2022-10-31T15:57:06.200Z,79.22
2022-10-31T15:59:33.947Z,79.17
2022-10-31T16:02:03.595Z,79.63
2022-10-31T16:04:31.639Z,79.05
2022-10-31T16:07:04.390Z,79.45
2022-10-31T16:09:31.994Z,79.28
2022-10-31T16:12:00.452Z,79.04
2022-10-31T16:14:31.482Z,79.33
2022-10-31T16:17:00.080Z,79.48
2022-10-31T16:19:30.321Z,79.46
2022-10-31T16:22:05.134Z,79.50
2022-10-31T16:24:34.031Z,79.53
2022-10-31T16:27:05.901Z,79.62
2022-10-31T16:35:49.248Z,79.84
2022-10-31T16:38:17.115Z,79.84
2022-10-31T16:40:45.432Z,79.97
2022-10-31T16:43:14.577Z,80.13
2022-10-31T16:45:44.994Z,80.03
2022-10-31T16:48:15.804Z,80.28
2022-10-31T16:50:43.676Z,80.28
2022-10-31T16:53:15.558Z,80.04
2022-10-31T16:55:47.208Z,80.21
2022-10-31T16:58:18.701Z,79.83
2022-10-31T17:00:46.514Z,79.91
2022-10-31T17:03:14.151Z,79.99
2022-10-31T17:05:42.002Z,79.83
2022-10-31T17:08:09.655Z,79.88
2022-10-31T17:10:39.021Z,79.90
2022-10-31T17:13:08.450Z,80.05
2022-10-31T17:15:41.053Z,80.27
2022-10-31T17:20:32.643Z,80.32
2022-10-31T17:23:00.944Z,80.16
2022-10-31T17:25:31.802Z,80.21
2022-10-31T17:27:59.975Z,79.95
2022-10-31T17:30:27.597Z,79.95
2022-10-31T17:32:55.564Z,79.80
2022-10-31T17:35:23.942Z,80.23
2022-10-31T17:37:53.026Z,79.89
2022-10-31T17:40:22.904Z,80.17
2022-10-31T17:42:51.439Z,79.97
2022-10-31T17:45:19.116Z,79.74
2022-10-31T17:47:48.070Z,80.15
2022-10-31T17:50:15.968Z,79.98
2022-10-31T17:52:43.681Z,79.79
2022-10-31T17:55:12.805Z,80.06
2022-10-31T17:57:40.800Z,80.14
2022-10-31T18:00:10.521Z,80.07
2022-10-31T18:02:38.335Z,80.11
2022-10-31T18:05:06.967Z,79.98
2022-10-31T18:07:34.982Z,79.89
2022-10-31T18:10:02.928Z,79.87
2022-10-31T18:12:32.377Z,79.82
2022-10-31T18:15:00.240Z,79.88
2022-10-31T18:17:27.879Z,79.85
2022-10-31T18:19:55.677Z,79.97
2022-10-31T18:22:23.375Z,79.44
2022-10-31T18:24:50.957Z,79.56
2022-10-31T18:27:18.561Z,79.53
2022-10-31T18:29:47.587Z,79.45
2022-10-31T18:32:15.219Z,79.83
2022-10-31T18:34:42.870Z,79.35
2022-10-31T18:37:10.567Z,79.25
2022-10-31T18:39:38.172Z,79.34
2022-10-31T18:42:05.890Z,79.43
2022-10-31T18:44:34.301Z,79.25
2022-10-31T18:47:03.359Z,79.36
2022-10-31T18:49:32.818Z,79.13
2022-10-31T18:52:00.798Z,79.16
2022-10-31T18:54:28.520Z,78.89
2022-10-31T18:56:56.685Z,79.22
2022-10-31T18:59:24.339Z,78.82
2022-10-31T19:01:52.078Z,78.83
2022-10-31T19:04:21.229Z,78.83
2022-10-31T19:06:48.959Z,78.76
2022-10-31T19:09:16.579Z,78.44
2022-10-31T19:11:44.199Z,78.46
2022-10-31T19:14:13.716Z,78.57
2022-10-31T19:16:41.728Z,78.84
2022-10-31T19:19:10.684Z,78.50
2022-10-31T19:21:39.705Z,78.31
2022-10-31T19:24:07.509Z,78.53
2022-10-31T19:26:35.370Z,78.13
2022-10-31T19:29:03.066Z,78.13
2022-10-31T19:31:30.807Z,77.91
2022-10-31T19:33:58.470Z,77.71
2022-10-31T19:36:26.751Z,77.76
2022-10-31T19:38:55.800Z,77.42
2022-10-31T19:41:26.238Z,77.48
2022-10-31T19:43:54.479Z,77.18
2022-10-31T19:46:47.851Z,77.22
2022-10-31T19:49:11.416Z,76.80
2022-10-31T19:51:39.082Z,76.72
2022-10-31T19:54:08.395Z,76.70
2022-10-31T19:56:36.029Z,76.62
2022-10-31T19:59:04.032Z,76.34
2022-10-31T20:01:31.737Z,76.20
2022-10-31T20:03:59.448Z,75.95
2022-10-31T20:06:28.831Z,76.07
2022-10-31T20:08:57.214Z,75.80
2022-10-31T20:11:27.704Z,75.72
2022-10-31T20:13:56.280Z,75.51
2022-10-31T20:16:24.383Z,75.45
2022-10-31T20:18:52.272Z,75.35
2022-10-31T20:21:22.200Z,74.98
2022-10-31T20:23:49.928Z,75.47
2022-10-31T20:26:20.676Z,75.09
2022-10-31T20:28:49.684Z,75.15
2022-10-31T20:31:19.388Z,75.00
2022-10-31T20:33:47.240Z,74.82
2022-10-31T20:36:14.971Z,74.76
2022-10-31T20:38:43.290Z,74.47
2022-10-31T20:41:11.915Z,74.58
2022-10-31T20:43:39.636Z,74.53
2022-10-31T20:46:11.590Z,74.50
2022-10-31T20:48:39.409Z,74.38
2022-10-31T20:51:08.804Z,74.19
2022-10-31T20:53:36.538Z,74.11
2022-10-31T20:56:07.469Z,73.84
2022-10-31T20:58:36.126Z,74.00
2022-10-31T21:01:04.285Z,73.85
2022-10-31T21:03:36.418Z,73.72
2022-10-31T21:06:06.745Z,73.54
2022-10-31T21:08:34.612Z,73.45
2022-10-31T21:11:05.943Z,73.71
2022-10-31T21:13:40.525Z,73.37
2022-10-31T21:16:10.760Z,73.07
2022-10-31T21:18:41.199Z,73.34
2022-10-31T21:21:09.676Z,73.27
2022-10-31T21:23:37.401Z,72.68
2022-10-31T21:26:08.342Z,72.83
2022-10-31T21:28:36.145Z,72.68
2022-10-31T21:31:07.673Z,72.73
2022-10-31T21:33:35.583Z,72.83
2022-10-31T21:36:05.775Z,72.83
2022-10-31T21:38:34.195Z,72.66
2022-10-31T21:41:02.328Z,72.32
2022-10-31T21:43:30.331Z,72.67
2022-10-31T21:46:03.514Z,72.34
2022-10-31T21:48:31.192Z,72.38
2022-10-31T21:50:58.834Z,72.01
2022-10-31T21:53:45.553Z,72.18
2022-10-31T21:56:13.214Z,71.97
2022-10-31T21:58:40.880Z,71.76
2022-10-31T22:01:08.724Z,71.36
2022-10-31T22:03:36.915Z,71.22
2022-10-31T22:06:04.834Z,71.14
2022-10-31T22:08:34.293Z,70.92
2022-10-31T22:11:03.007Z,70.51
2022-10-31T22:13:31.379Z,70.17
2022-10-31T22:16:01.628Z,70.58
2022-10-31T22:18:29.661Z,70.26
2022-10-31T22:21:02.314Z,69.71
2022-10-31T22:23:30.859Z,69.97
2022-10-31T22:26:03.585Z,69.26
2022-10-31T22:28:31.546Z,68.63
2022-10-31T22:30:59.498Z,69.32
2022-10-31T22:33:27.198Z,69.09
2022-10-31T22:35:54.900Z,68.43
2022-10-31T22:38:22.538Z,68.43
2022-10-31T22:40:50.225Z,68.46
2022-10-31T22:43:19.273Z,67.97
2022-10-31T22:45:54.911Z,68.11
2022-10-31T22:48:22.608Z,68.17
2022-10-31T22:50:50.235Z,68.00
2022-10-31T22:53:17.843Z,67.61
2022-10-31T22:55:45.668Z,67.73
2022-10-31T22:58:13.861Z,67.44
2022-10-31T23:00:43.093Z,67.57
2022-10-31T23:03:10.776Z,67.23
2022-10-31T23:05:38.423Z,67.04
2022-10-31T23:08:06.599Z,66.80
2022-10-31T23:10:35.733Z,67.33
2022-10-31T23:13:20.993Z,66.97
2022-10-31T23:15:49.991Z,67.27
2022-10-31T23:18:36.628Z,66.89
2022-10-31T23:21:06.485Z,67.35
2022-10-31T23:23:35.298Z,67.28
2022-10-31T23:26:20.671Z,67.22
2022-10-31T23:28:48.266Z,66.80
2022-10-31T23:31:17.512Z,67.34
2022-10-31T23:33:45.199Z,66.68
2022-10-31T23:36:12.850Z,67.13
2022-10-31T23:38:40.489Z,66.69
2022-10-31T23:41:08.118Z,66.55
2022-10-31T23:43:35.779Z,66.65
2022-10-31T23:46:03.421Z,66.74
2022-10-31T23:48:32.452Z,66.88
2022-10-31T23:51:00.077Z,66.67
2022-10-31T23:53:27.742Z,66.43
2022-10-31T23:55:55.879Z,66.70
2022-10-31T23:58:23.562Z,66.88
